CheckWX is a tool to help pilots better visualize weather data.  It is not intended as a substitute for an official pre-flight weather briefing.

09:41:51 UTC

ETIK METAR
Illesheim Air Base Heliport
Storck Barracks, Germany
Current

46 mins ago

ETIK 200856Z AUTO 01003KT 9999 BKN120 04/04 A3026 RMK AO2 SLP263 T00360036 52014 $
Observed
Feb-20 @ 08:56 UTC
Wind
  • 010° at 3 KTS
Visibility
10,000+ meters
Flight Rules
VFR
Cloud Levels
  • Broken at 12,000' AGL
Temperature
C / 39°F
Dewpoint
C / 39°F
Humidity
100%
Altimeter
30.26" Hg
Pressure
1026.3 hPa
Previous

1 hour ago

ETIK 200841Z AUTO 00000KT 8000 BR SCT120 SCT150 03/03 A3026 RMK AO2 SLP265 $
Observed
Feb-20 @ 08:41 UTC
Visibility
7,998 meters
Flight Rules
MVFR
Conditions
Mist
Cloud Levels
  • Scattered at 12,000' AGL
  • Scattered at 15,000' AGL
Temperature
C / 37°F
Dewpoint
C / 37°F
Humidity
100%
Altimeter
30.26" Hg
Pressure
1026.5 hPa
Previous

1 hour ago

ETIK 200812Z 00000KT 5000 BR FEW150 01/01 A3025 RMK SLP263 $
Observed
Feb-20 @ 08:12 UTC
Visibility
5,005 meters
Flight Rules
MVFR
Conditions
Mist
Cloud Levels
  • Few at 15,000' AGL
Temperature
C / 34°F
Dewpoint
C / 34°F
Humidity
100%
Altimeter
30.25" Hg
Pressure
1026.3 hPa